createdAt,value
2022-12-31T00:00:53.542Z,100098.66
2022-12-31T00:03:20.156Z,100115.28
2022-12-31T00:05:52.413Z,100126.25
2022-12-31T00:08:19.208Z,100117.41
2022-12-31T00:10:45.756Z,100120.34
2022-12-31T00:13:15.049Z,100120.63
2022-12-31T00:15:44.946Z,100119.22
2022-12-31T00:18:12.056Z,100122.16
2022-12-31T00:20:39.510Z,100131.19
2022-12-31T00:23:10.489Z,100137.25
2022-12-31T00:25:37.893Z,100128.84
2022-12-31T00:28:05.348Z,100142.47
2022-12-31T00:30:42.728Z,100138.81
2022-12-31T00:33:10.991Z,100140.00
2022-12-31T00:35:40.733Z,100141.97
2022-12-31T00:38:09.790Z,100147.91
2022-12-31T00:40:36.769Z,100146.84
2022-12-31T00:43:03.876Z,100149.34
2022-12-31T00:45:33.127Z,100145.91
2022-12-31T00:48:00.150Z,100150.13
2022-12-31T00:50:29.986Z,100144.59
2022-12-31T00:52:56.748Z,100146.00
2022-12-31T00:55:26.250Z,100140.78
2022-12-31T00:58:00.608Z,100146.75
2022-12-31T01:00:27.588Z,100154.81
2022-12-31T01:03:02.602Z,100163.75
2022-12-31T01:05:33.891Z,100167.44
2022-12-31T01:08:03.305Z,100190.41
2022-12-31T01:10:48.880Z,100190.94
2022-12-31T01:13:17.128Z,100200.09
2022-12-31T01:15:49.465Z,100186.16
2022-12-31T01:18:24.532Z,100184.09
2022-12-31T01:20:54.225Z,100179.06
2022-12-31T01:23:23.550Z,100178.31
2022-12-31T01:25:54.954Z,100181.56
2022-12-31T01:28:31.007Z,100186.78
2022-12-31T01:30:58.262Z,100184.69
2022-12-31T01:33:34.046Z,100185.00
2022-12-31T01:36:05.688Z,100190.31
2022-12-31T01:38:33.047Z,100195.22
2022-12-31T01:40:59.612Z,100199.81
2022-12-31T01:43:46.459Z,100196.34
2022-12-31T01:46:14.556Z,100216.06
2022-12-31T01:48:41.149Z,100215.63
2022-12-31T01:51:17.611Z,100211.47
2022-12-31T01:53:44.144Z,100204.03
2022-12-31T01:56:11.556Z,100200.66
2022-12-31T01:58:44.355Z,100207.28
2022-12-31T02:01:13.949Z,100200.03
2022-12-31T02:03:41.231Z,100209.47
2022-12-31T02:06:10.765Z,100201.63
2022-12-31T02:08:41.946Z,100206.13
2022-12-31T02:11:29.256Z,100209.06
2022-12-31T02:13:58.913Z,100216.97
2022-12-31T02:16:46.320Z,100219.66
2022-12-31T02:19:31.626Z,100236.19
2022-12-31T02:22:21.113Z,100238.53
2022-12-31T02:25:26.204Z,100209.97
2022-12-31T02:28:11.723Z,100210.06
2022-12-31T02:30:40.371Z,100217.16
2022-12-31T02:33:18.450Z,100216.66
2022-12-31T02:35:48.416Z,100210.03
2022-12-31T02:38:36.633Z,100211.91
2022-12-31T02:41:06.105Z,100212.03
2022-12-31T02:43:35.553Z,100202.34
2022-12-31T02:46:02.191Z,100208.19
2022-12-31T02:48:47.191Z,100206.63
2022-12-31T02:51:29.322Z,100212.63
2022-12-31T02:54:25.926Z,100213.06
2022-12-31T02:57:07.827Z,100212.94
2022-12-31T02:59:57.701Z,100211.16
2022-12-31T03:02:28.161Z,100206.22
2022-12-31T03:04:55.996Z,100207.00
2022-12-31T03:07:27.010Z,100200.91
2022-12-31T03:09:53.956Z,100201.84
2022-12-31T03:12:40.250Z,100207.88
2022-12-31T03:15:19.876Z,100214.19
2022-12-31T03:17:54.936Z,100201.63
2022-12-31T03:20:41.414Z,100202.75
2022-12-31T03:23:09.804Z,100205.47
2022-12-31T03:25:37.879Z,100205.06
2022-12-31T03:28:09.647Z,100200.97
2022-12-31T03:30:37.130Z,100204.41
2022-12-31T03:33:04.640Z,100205.41
2022-12-31T03:35:32.179Z,100197.06
2022-12-31T03:37:58.939Z,100201.34
2022-12-31T03:40:26.919Z,100203.19
2022-12-31T03:42:53.572Z,100196.41
2022-12-31T03:45:20.741Z,100185.59
2022-12-31T03:47:47.926Z,100196.13
2022-12-31T03:50:15.560Z,100189.63
2022-12-31T03:52:42.098Z,100170.03
2022-12-31T03:55:09.569Z,100174.53
2022-12-31T03:57:36.374Z,100152.06
2022-12-31T04:00:04.566Z,100161.44
2022-12-31T04:02:31.339Z,100166.25
2022-12-31T04:04:58.165Z,100169.97
2022-12-31T04:07:24.764Z,100170.81
2022-12-31T04:09:51.304Z,100172.44
2022-12-31T04:12:17.928Z,100180.03
2022-12-31T04:14:44.670Z,100177.66
2022-12-31T04:17:11.213Z,100173.56
2022-12-31T04:19:40.400Z,100176.69
2022-12-31T04:22:07.268Z,100166.44
2022-12-31T04:24:33.924Z,100166.56
2022-12-31T04:27:05.527Z,100179.75
2022-12-31T04:29:34.550Z,100176.78
2022-12-31T04:32:01.964Z,100171.59
2022-12-31T04:34:28.672Z,100171.59
2022-12-31T04:36:56.305Z,100172.75
2022-12-31T04:39:22.973Z,100166.72
2022-12-31T04:41:55.926Z,100161.69
2022-12-31T04:44:22.471Z,100162.53
2022-12-31T04:46:49.033Z,100151.09
2022-12-31T04:49:18.727Z,100148.97
2022-12-31T04:51:45.277Z,100125.09
2022-12-31T04:54:16.710Z,100121.41
2022-12-31T04:56:43.305Z,100124.13
2022-12-31T04:59:10.425Z,100134.25
2022-12-31T05:01:37.320Z,100124.72
2022-12-31T05:04:09.476Z,100119.97
2022-12-31T05:06:36.072Z,100123.78
2022-12-31T05:09:02.572Z,100120.56
2022-12-31T05:11:29.553Z,100123.69
2022-12-31T05:13:56.050Z,100120.47
2022-12-31T05:16:22.810Z,100134.75
2022-12-31T05:18:49.373Z,100134.19
2022-12-31T05:21:19.104Z,100140.28
2022-12-31T05:23:45.596Z,100142.69
2022-12-31T05:26:15.389Z,100143.09
2022-12-31T05:28:41.927Z,100133.06
2022-12-31T05:31:08.562Z,100129.72
2022-12-31T05:33:38.054Z,100127.78
2022-12-31T05:36:04.802Z,100111.84
2022-12-31T05:38:31.323Z,100110.66
2022-12-31T05:41:01.490Z,100097.69
2022-12-31T05:43:28.382Z,100084.97
2022-12-31T05:45:54.979Z,100080.94
2022-12-31T05:48:21.556Z,100083.06
2022-12-31T05:50:48.763Z,100084.03
2022-12-31T05:53:15.390Z,100088.19
2022-12-31T05:55:42.000Z,100084.88
2022-12-31T05:58:08.598Z,100080.94
2022-12-31T06:00:35.089Z,100071.19
2022-12-31T06:03:01.838Z,100068.22
2022-12-31T06:05:29.849Z,100070.03
2022-12-31T06:07:56.529Z,100061.09
2022-12-31T06:10:23.143Z,100066.91
2022-12-31T06:12:49.790Z,100065.31
2022-12-31T06:15:16.591Z,100065.19
2022-12-31T06:17:43.167Z,100056.38
2022-12-31T06:20:13.080Z,100059.81
2022-12-31T06:22:40.187Z,100057.09
2022-12-31T06:25:06.908Z,100057.56
2022-12-31T06:27:33.406Z,100064.13
2022-12-31T06:29:59.949Z,100074.13
2022-12-31T06:32:26.533Z,100066.59
2022-12-31T06:34:53.161Z,100061.72
2022-12-31T06:37:19.678Z,100056.72
2022-12-31T06:39:46.215Z,100078.28
2022-12-31T06:42:14.230Z,100074.09
2022-12-31T06:44:41.300Z,100069.44
2022-12-31T06:47:08.044Z,100062.41
2022-12-31T06:49:34.621Z,100074.41
2022-12-31T06:52:01.293Z,100066.16
2022-12-31T06:54:27.940Z,100064.16
2022-12-31T06:56:54.856Z,100060.91
2022-12-31T06:59:25.986Z,100058.53
2022-12-31T07:01:52.516Z,100064.41
2022-12-31T07:04:28.501Z,100053.09
2022-12-31T07:07:01.688Z,100060.22
2022-12-31T07:09:51.528Z,100051.72
2022-12-31T07:12:39.582Z,100043.59
2022-12-31T07:15:12.156Z,100042.00
2022-12-31T07:17:47.833Z,100049.22
2022-12-31T07:20:17.709Z,100049.56
2022-12-31T07:22:45.414Z,100057.63
2022-12-31T07:25:20.399Z,100062.16
2022-12-31T07:27:59.634Z,100046.16
2022-12-31T07:30:29.339Z,100043.75
2022-12-31T07:32:59.943Z,100051.03
2022-12-31T07:35:41.803Z,100040.19
2022-12-31T07:38:15.599Z,100049.47
2022-12-31T07:41:05.521Z,100052.97
2022-12-31T07:43:41.253Z,100061.56
2022-12-31T07:46:22.715Z,100045.81
2022-12-31T07:48:49.501Z,100049.09
2022-12-31T07:51:16.318Z,100063.59
2022-12-31T07:53:43.064Z,100070.97
2022-12-31T07:56:10.132Z,100082.50
2022-12-31T07:58:42.772Z,100062.34
2022-12-31T08:01:11.785Z,100067.19
2022-12-31T08:03:55.039Z,100074.00
2022-12-31T08:06:27.823Z,100100.72
2022-12-31T08:09:16.856Z,100090.06
2022-12-31T08:11:47.686Z,100093.44
2022-12-31T08:14:14.987Z,100090.94
2022-12-31T08:16:42.110Z,100087.31
2022-12-31T08:19:16.779Z,100090.63
2022-12-31T08:21:52.771Z,100089.00
2022-12-31T08:24:35.328Z,100089.84
2022-12-31T08:27:10.921Z,100089.72
2022-12-31T08:29:45.905Z,100097.44
2022-12-31T08:32:27.688Z,100094.81
2022-12-31T08:35:14.137Z,100096.28
2022-12-31T08:37:43.822Z,100095.69
2022-12-31T08:40:18.864Z,100094.75
2022-12-31T08:43:04.251Z,100096.56
2022-12-31T08:45:43.475Z,100094.91
2022-12-31T08:48:29.961Z,100089.38
2022-12-31T08:50:57.040Z,100091.72
2022-12-31T08:53:23.781Z,100096.56
2022-12-31T08:55:54.015Z,100091.97
2022-12-31T08:58:38.849Z,100103.78
2022-12-31T09:01:06.622Z,100111.94
2022-12-31T09:03:39.326Z,100114.28
2022-12-31T09:06:24.610Z,100111.22
2022-12-31T09:08:58.758Z,100135.63
2022-12-31T09:11:31.092Z,100117.34
2022-12-31T09:14:06.891Z,100124.53
2022-12-31T09:16:40.596Z,100122.88
2022-12-31T09:19:09.004Z,100126.75
2022-12-31T09:21:37.746Z,100122.56
2022-12-31T09:24:09.623Z,100126.72
2022-12-31T09:26:43.467Z,100118.75
2022-12-31T09:29:19.389Z,100115.66
2022-12-31T09:31:51.664Z,100125.69
2022-12-31T09:34:21.261Z,100115.88
2022-12-31T09:36:53.880Z,100115.75
2022-12-31T09:39:27.793Z,100124.16
2022-12-31T09:42:06.064Z,100123.91
2022-12-31T09:44:38.839Z,100122.53
2022-12-31T09:47:05.445Z,100114.28
2022-12-31T09:49:44.476Z,100120.34
2022-12-31T09:52:27.104Z,100111.00
2022-12-31T09:55:00.467Z,100112.06
2022-12-31T09:57:27.096Z,100100.06
2022-12-31T10:00:12.087Z,100095.34
2022-12-31T10:02:48.037Z,100091.88
2022-12-31T10:05:14.608Z,100099.13
2022-12-31T10:07:41.203Z,100109.88
2022-12-31T10:10:21.645Z,100123.25
2022-12-31T10:12:54.246Z,100104.28
2022-12-31T10:15:30.009Z,100091.06
2022-12-31T10:18:00.518Z,100111.03
2022-12-31T10:20:33.541Z,100102.03
2022-12-31T10:23:19.081Z,100119.28
2022-12-31T10:26:07.373Z,100105.25
2022-12-31T10:28:46.277Z,100109.66
2022-12-31T10:31:13.555Z,100127.38
2022-12-31T10:34:02.510Z,100124.88
2022-12-31T10:36:31.124Z,100144.53
2022-12-31T10:39:10.734Z,100156.66
2022-12-31T10:41:50.041Z,100141.16
2022-12-31T10:44:34.849Z,100146.75
2022-12-31T10:47:08.025Z,100140.34
2022-12-31T10:49:38.223Z,100158.09
2022-12-31T10:52:25.129Z,100144.09
2022-12-31T10:55:05.416Z,100153.69
2022-12-31T10:57:55.370Z,100156.06
2022-12-31T11:00:27.387Z,100166.84
2022-12-31T11:03:09.728Z,100173.78
2022-12-31T11:05:48.576Z,100176.22
2022-12-31T11:08:36.799Z,100175.50
2022-12-31T11:11:22.265Z,100186.63
2022-12-31T11:13:52.054Z,100182.78
2022-12-31T11:16:27.854Z,100191.78
2022-12-31T11:18:57.566Z,100186.19
2022-12-31T11:21:28.282Z,100187.94
2022-12-31T11:24:12.754Z,100193.06
2022-12-31T11:26:57.641Z,100186.41
2022-12-31T11:29:38.757Z,100197.22
2022-12-31T11:32:11.448Z,100193.22
2022-12-31T11:34:37.973Z,100188.38
2022-12-31T11:37:23.089Z,100169.84
2022-12-31T11:40:04.902Z,100173.78
2022-12-31T11:42:41.145Z,100171.06
2022-12-31T11:45:10.866Z,100174.91
2022-12-31T11:48:28.392Z,100165.78
2022-12-31T11:50:56.782Z,100174.66
2022-12-31T11:53:31.065Z,100175.47
2022-12-31T11:56:10.047Z,100163.16
2022-12-31T11:58:36.908Z,100165.16
2022-12-31T12:01:03.493Z,100174.88
2022-12-31T12:03:30.704Z,100161.66
2022-12-31T12:06:00.607Z,100163.97
2022-12-31T12:08:30.385Z,100158.06
2022-12-31T12:11:22.283Z,100161.16
2022-12-31T12:13:48.835Z,100158.41
2022-12-31T12:16:16.030Z,100168.31
2022-12-31T12:18:46.787Z,100155.88
2022-12-31T12:21:17.666Z,100165.41
2022-12-31T12:23:57.949Z,100161.75
2022-12-31T12:26:29.827Z,100159.75
2022-12-31T12:28:59.703Z,100161.59
2022-12-31T12:31:27.602Z,100167.81
2022-12-31T12:33:54.220Z,100166.97
2022-12-31T12:36:21.452Z,100174.16
2022-12-31T12:38:48.134Z,100166.00
2022-12-31T12:41:22.189Z,100171.44
2022-12-31T12:43:48.672Z,100169.72
2022-12-31T12:46:20.459Z,100158.00
2022-12-31T12:48:47.946Z,100162.97
2022-12-31T12:51:26.739Z,100164.19
2022-12-31T12:53:53.350Z,100174.66
2022-12-31T12:56:27.660Z,100165.53
2022-12-31T12:58:54.239Z,100164.53
2022-12-31T13:01:38.501Z,100164.09
2022-12-31T13:04:33.990Z,100167.69
2022-12-31T13:07:01.350Z,100164.53
2022-12-31T13:09:34.298Z,100176.63
2022-12-31T13:12:10.478Z,100162.47
2022-12-31T13:14:52.416Z,100172.03
2022-12-31T13:17:18.885Z,100156.22
2022-12-31T13:19:48.415Z,100174.19
2022-12-31T13:22:20.422Z,100175.19
2022-12-31T13:25:04.045Z,100171.19
2022-12-31T13:27:35.851Z,100174.38
2022-12-31T13:30:04.046Z,100173.69
2022-12-31T13:32:36.638Z,100178.75
2022-12-31T13:35:07.135Z,100183.69
2022-12-31T13:37:39.830Z,100188.69
2022-12-31T13:40:25.628Z,100188.19
2022-12-31T13:42:54.904Z,100191.66
2022-12-31T13:45:24.873Z,100184.25
2022-12-31T13:47:54.537Z,100194.94
2022-12-31T13:50:33.373Z,100199.66
2022-12-31T13:53:29.731Z,100193.47
2022-12-31T13:56:02.163Z,100218.78
2022-12-31T13:58:34.488Z,100232.41
2022-12-31T14:01:01.092Z,100202.34
2022-12-31T14:03:38.522Z,100236.97
2022-12-31T14:06:13.850Z,100236.94
2022-12-31T14:08:40.503Z,100246.84
2022-12-31T14:11:14.726Z,100262.28
2022-12-31T14:13:44.253Z,100239.88
2022-12-31T14:16:19.668Z,100256.16
2022-12-31T14:19:09.076Z,100287.75
2022-12-31T14:21:35.578Z,100285.50
2022-12-31T14:24:14.621Z,100288.78
2022-12-31T14:26:44.345Z,100289.28
2022-12-31T14:29:11.130Z,100289.66
2022-12-31T14:31:56.706Z,100288.25
2022-12-31T14:34:41.702Z,100292.47
2022-12-31T14:37:14.086Z,100297.66
2022-12-31T14:39:43.417Z,100306.06
2022-12-31T14:42:22.148Z,100310.81
2022-12-31T14:45:04.161Z,100308.94
2022-12-31T14:47:36.049Z,100309.69
2022-12-31T14:50:13.940Z,100319.72
2022-12-31T14:53:15.967Z,100315.91
2022-12-31T14:55:42.584Z,100334.00
2022-12-31T14:58:28.138Z,100324.94
2022-12-31T15:00:57.081Z,100324.00
2022-12-31T15:03:27.822Z,100330.94
2022-12-31T15:06:12.966Z,100332.19
2022-12-31T15:09:07.676Z,100325.13
2022-12-31T15:11:42.149Z,100327.75
2022-12-31T15:14:26.541Z,100332.22
2022-12-31T15:16:58.485Z,100321.94
2022-12-31T15:19:37.579Z,100324.59
2022-12-31T15:22:27.478Z,100322.78
2022-12-31T15:24:54.147Z,100325.63
2022-12-31T15:27:29.796Z,100328.25
2022-12-31T15:29:56.469Z,100325.91
2022-12-31T15:32:28.207Z,100335.50
2022-12-31T15:35:13.254Z,100339.84
2022-12-31T15:37:39.748Z,100340.13
2022-12-31T15:40:32.416Z,100337.75
2022-12-31T15:43:02.929Z,100344.16
2022-12-31T15:45:33.291Z,100344.13
2022-12-31T15:48:02.329Z,100339.97
2022-12-31T15:50:32.187Z,100321.13
2022-12-31T15:53:05.046Z,100324.19
2022-12-31T15:55:34.349Z,100336.56
2022-12-31T15:58:05.108Z,100339.50
2022-12-31T16:00:43.605Z,100344.13
2022-12-31T16:03:20.089Z,100352.50
2022-12-31T16:05:46.593Z,100355.19
2022-12-31T16:08:17.333Z,100357.25
2022-12-31T16:10:44.235Z,100367.09
2022-12-31T16:13:18.482Z,100364.16
2022-12-31T16:15:48.672Z,100371.50
2022-12-31T16:18:22.733Z,100365.53
2022-12-31T16:20:51.844Z,100368.06
2022-12-31T16:23:23.102Z,100360.97
2022-12-31T16:25:50.564Z,100365.69
2022-12-31T16:28:18.970Z,100377.19
2022-12-31T16:30:45.624Z,100383.16
2022-12-31T16:33:14.504Z,100377.53
2022-12-31T16:35:41.568Z,100374.22
2022-12-31T16:38:08.185Z,100386.81
2022-12-31T16:40:34.798Z,100384.25
2022-12-31T16:43:01.605Z,100387.97
2022-12-31T16:45:35.802Z,100392.28
2022-12-31T16:48:19.065Z,100407.53
2022-12-31T16:50:46.322Z,100393.34
2022-12-31T16:53:17.464Z,100379.00
2022-12-31T16:55:52.730Z,100392.66
2022-12-31T16:58:27.545Z,100384.19
2022-12-31T17:00:55.823Z,100389.13
2022-12-31T17:03:31.722Z,100388.56
2022-12-31T17:06:12.439Z,100398.81
2022-12-31T17:08:38.911Z,100387.69
2022-12-31T17:11:05.741Z,100396.66
2022-12-31T17:13:36.495Z,100384.38
2022-12-31T17:16:03.625Z,100380.22
2022-12-31T17:18:35.853Z,100393.53
2022-12-31T17:21:08.429Z,100393.88
2022-12-31T17:23:38.329Z,100393.88
2022-12-31T17:26:07.805Z,100400.75
2022-12-31T17:28:45.020Z,100404.84
2022-12-31T17:31:28.543Z,100401.31
2022-12-31T17:34:05.099Z,100395.59
2022-12-31T17:36:31.885Z,100408.69
2022-12-31T17:39:18.739Z,100404.72
2022-12-31T17:41:46.447Z,100423.66
2022-12-31T17:44:32.900Z,100422.44
2022-12-31T17:47:03.312Z,100431.25
2022-12-31T17:49:31.010Z,100430.03
2022-12-31T17:51:57.910Z,100423.91
2022-12-31T17:54:26.847Z,100428.19
2022-12-31T17:56:53.989Z,100421.41
2022-12-31T17:59:25.634Z,100417.78
2022-12-31T18:01:52.309Z,100408.13
2022-12-31T18:04:25.731Z,100418.47
2022-12-31T18:06:56.399Z,100416.47
2022-12-31T18:09:23.202Z,100407.22
2022-12-31T18:11:50.080Z,100431.03
2022-12-31T18:14:22.347Z,100426.56
2022-12-31T18:16:48.963Z,100423.38
2022-12-31T18:19:45.859Z,100423.22
2022-12-31T18:22:04.961Z,100425.06
2022-12-31T18:24:45.751Z,100428.13
2022-12-31T18:27:18.955Z,100439.78
2022-12-31T18:29:45.515Z,100431.03
2022-12-31T18:32:35.071Z,100442.00
2022-12-31T18:35:03.200Z,100440.78
2022-12-31T18:37:33.709Z,100433.53
2022-12-31T18:40:07.516Z,100432.59
2022-12-31T18:42:34.327Z,100454.44
2022-12-31T18:45:03.255Z,100456.25
2022-12-31T18:47:35.820Z,100466.63
2022-12-31T18:50:04.195Z,100454.03
2022-12-31T18:52:30.644Z,100453.34
2022-12-31T18:54:57.079Z,100451.28
2022-12-31T18:57:23.537Z,100460.88
2022-12-31T18:59:50.175Z,100454.34
2022-12-31T19:02:18.882Z,100450.03
2022-12-31T19:04:45.639Z,100454.63
2022-12-31T19:07:12.187Z,100441.84
2022-12-31T19:09:47.166Z,100442.16
2022-12-31T19:12:14.730Z,100448.94
2022-12-31T19:14:41.229Z,100449.09
2022-12-31T19:19:33.031Z,100443.38
2022-12-31T19:21:59.467Z,100456.69
2022-12-31T19:24:28.370Z,100452.66
2022-12-31T19:26:55.209Z,100442.53
2022-12-31T19:29:21.657Z,100439.50
2022-12-31T19:31:48.230Z,100432.97
2022-12-31T19:34:14.702Z,100448.22
2022-12-31T19:36:44.076Z,100438.53
2022-12-31T19:39:14.333Z,100437.97
2022-12-31T19:41:42.303Z,100431.84
2022-12-31T19:44:15.949Z,100423.13
2022-12-31T19:46:42.495Z,100424.63
2022-12-31T19:49:12.611Z,100418.78
2022-12-31T19:51:39.507Z,100414.50
2022-12-31T19:54:06.068Z,100413.13
2022-12-31T19:56:32.590Z,100412.84
2022-12-31T19:59:03.090Z,100415.78
2022-12-31T20:01:29.619Z,100422.41
2022-12-31T20:03:56.551Z,100432.41
2022-12-31T20:06:23.021Z,100425.59
2022-12-31T20:08:49.527Z,100436.31
2022-12-31T20:11:18.677Z,100457.97
2022-12-31T20:13:46.054Z,100453.78
2022-12-31T20:16:14.055Z,100447.53
2022-12-31T20:18:41.320Z,100446.72
2022-12-31T20:21:12.200Z,100441.84
2022-12-31T20:23:39.362Z,100443.78
2022-12-31T20:26:05.943Z,100446.56
2022-12-31T20:28:32.450Z,100440.31
2022-12-31T20:30:59.040Z,100437.53
2022-12-31T20:33:25.664Z,100439.34
2022-12-31T20:35:52.236Z,100446.69
2022-12-31T20:38:18.765Z,100449.88
2022-12-31T20:40:47.039Z,100455.88
2022-12-31T20:43:13.865Z,100456.03
2022-12-31T20:45:41.258Z,100452.41
2022-12-31T20:48:07.854Z,100461.69
2022-12-31T20:50:34.331Z,100447.41
2022-12-31T20:53:00.890Z,100434.34
2022-12-31T20:55:27.549Z,100430.16
2022-12-31T20:57:54.013Z,100436.16
2022-12-31T21:00:20.573Z,100436.13
2022-12-31T21:02:55.512Z,100441.13
2022-12-31T21:05:24.499Z,100449.75
2022-12-31T21:07:51.921Z,100439.19
2022-12-31T21:10:18.427Z,100433.78
2022-12-31T21:12:44.980Z,100443.25
2022-12-31T21:15:12.465Z,100444.75
2022-12-31T21:17:39.140Z,100434.91
2022-12-31T21:20:05.890Z,100438.66
2022-12-31T21:22:33.858Z,100440.75
2022-12-31T21:25:01.335Z,100429.06
2022-12-31T21:27:28.613Z,100450.59
2022-12-31T21:30:17.795Z,100443.38
2022-12-31T21:32:42.041Z,100447.56
2022-12-31T21:35:40.728Z,100452.97
2022-12-31T21:37:57.907Z,100445.72
2022-12-31T21:40:26.836Z,100446.56
2022-12-31T21:42:53.276Z,100446.00
2022-12-31T21:45:19.710Z,100453.38
2022-12-31T21:48:04.529Z,100461.00
2022-12-31T21:50:31.104Z,100469.75
2022-12-31T21:52:57.592Z,100467.09
2022-12-31T21:55:42.742Z,100467.09
2022-12-31T21:58:26.536Z,100470.72
2022-12-31T22:01:12.818Z,100463.63
2022-12-31T22:03:39.501Z,100474.63
2022-12-31T22:06:10.794Z,100482.09
2022-12-31T22:08:37.795Z,100466.56
2022-12-31T22:11:04.365Z,100460.88
2022-12-31T22:13:31.203Z,100468.09
2022-12-31T22:16:04.275Z,100472.81
2022-12-31T22:18:34.081Z,100477.81
2022-12-31T22:21:20.913Z,100488.63
2022-12-31T22:23:48.431Z,100474.06
2022-12-31T22:26:16.073Z,100484.88
2022-12-31T22:28:43.130Z,100496.25
2022-12-31T22:31:12.401Z,100489.06
2022-12-31T22:33:38.980Z,100496.69
2022-12-31T22:36:07.134Z,100494.59
2022-12-31T22:38:34.563Z,100508.06
2022-12-31T22:41:12.018Z,100493.78
2022-12-31T22:43:39.947Z,100499.19
2022-12-31T22:46:11.249Z,100495.72
2022-12-31T22:48:38.124Z,100509.06
2022-12-31T22:51:04.732Z,100499.75
2022-12-31T22:53:31.173Z,100496.56
2022-12-31T22:55:57.671Z,100504.34
2022-12-31T22:58:24.591Z,100507.25
2022-12-31T23:00:51.528Z,100498.91
2022-12-31T23:03:18.100Z,100502.06
2022-12-31T23:05:44.978Z,100510.41
2022-12-31T23:08:20.538Z,100504.28
2022-12-31T23:11:06.079Z,100500.63
2022-12-31T23:13:56.214Z,100519.84
2022-12-31T23:16:41.912Z,100516.09
2022-12-31T23:19:26.875Z,100514.84
2022-12-31T23:22:12.342Z,100519.06
2022-12-31T23:24:38.913Z,100504.84
2022-12-31T23:27:06.044Z,100523.66
2022-12-31T23:29:32.979Z,100518.59
2022-12-31T23:31:59.455Z,100520.19
2022-12-31T23:34:25.905Z,100512.81
2022-12-31T23:36:52.415Z,100528.75
2022-12-31T23:39:18.930Z,100507.06
2022-12-31T23:41:45.389Z,100510.13
2022-12-31T23:44:14.834Z,100519.63
2022-12-31T23:46:42.329Z,100516.34
2022-12-31T23:49:08.889Z,100528.66
2022-12-31T23:51:36.571Z,100536.72
2022-12-31T23:54:06.176Z,100542.25
2022-12-31T23:56:32.789Z,100540.72
2022-12-31T23:58:59.736Z,100540.81
